sensor_id;sensor_type;location;lat;lon;timestamp;P1;durP1;ratioP1;P2;durP2;ratioP2
79268;SDS011;68714;48.586;7.772;2023-03-20T00:03:41;1.10;;;0.90;;
79268;SDS011;68714;48.586;7.772;2023-03-20T00:08:42;1.30;;;0.85;;
79268;SDS011;68714;48.586;7.772;2023-03-20T00:13:56;1.33;;;0.93;;
79268;SDS011;68714;48.586;7.772;2023-03-20T00:16:26;1.60;;;1.08;;
79268;SDS011;68714;48.586;7.772;2023-03-20T00:18:55;1.25;;;1.05;;
79268;SDS011;68714;48.586;7.772;2023-03-20T00:21:21;1.98;;;0.80;;
79268;SDS011;68714;48.586;7.772;2023-03-20T00:23:46;2.10;;;1.10;;
79268;SDS011;68714;48.586;7.772;2023-03-20T00:26:13;1.30;;;1.00;;
79268;SDS011;68714;48.586;7.772;2023-03-20T00:28:45;1.58;;;0.95;;
79268;SDS011;68714;48.586;7.772;2023-03-20T00:31:23;0.98;;;0.77;;
79268;SDS011;68714;48.586;7.772;2023-03-20T00:33:49;1.90;;;1.20;;
79268;SDS011;68714;48.586;7.772;2023-03-20T00:36:15;2.28;;;1.15;;
79268;SDS011;68714;48.586;7.772;2023-03-20T00:38:40;1.60;;;1.10;;
79268;SDS011;68714;48.586;7.772;2023-03-20T00:41:25;2.70;;;1.20;;
79268;SDS011;68714;48.586;7.772;2023-03-20T00:43:54;2.45;;;0.98;;
79268;SDS011;68714;48.586;7.772;2023-03-20T00:46:23;1.20;;;0.90;;
79268;SDS011;68714;48.586;7.772;2023-03-20T00:48:50;1.92;;;0.90;;
79268;SDS011;68714;48.586;7.772;2023-03-20T00:51:16;1.15;;;0.95;;
79268;SDS011;68714;48.586;7.772;2023-03-20T00:53:42;2.00;;;1.10;;
79268;SDS011;68714;48.586;7.772;2023-03-20T00:56:14;2.03;;;1.20;;
79268;SDS011;68714;48.586;7.772;2023-03-20T00:58:58;2.70;;;1.17;;
79268;SDS011;68714;48.586;7.772;2023-03-20T01:01:25;1.88;;;1.02;;
79268;SDS011;68714;48.586;7.772;2023-03-20T01:03:51;1.45;;;0.85;;
79268;SDS011;68714;48.586;7.772;2023-03-20T01:06:16;2.30;;;1.20;;
79268;SDS011;68714;48.586;7.772;2023-03-20T01:08:43;1.25;;;1.02;;
79268;SDS011;68714;48.586;7.772;2023-03-20T01:11:08;1.52;;;0.90;;
79268;SDS011;68714;48.586;7.772;2023-03-20T01:13:36;1.52;;;1.10;;
79268;SDS011;68714;48.586;7.772;2023-03-20T01:16:02;2.40;;;1.27;;
79268;SDS011;68714;48.586;7.772;2023-03-20T01:18:28;2.88;;;1.83;;
79268;SDS011;68714;48.586;7.772;2023-03-20T01:20:53;2.08;;;1.30;;
79268;SDS011;68714;48.586;7.772;2023-03-20T01:23:19;1.45;;;1.10;;
79268;SDS011;68714;48.586;7.772;2023-03-20T01:25:46;2.28;;;1.20;;
79268;SDS011;68714;48.586;7.772;2023-03-20T01:28:21;1.92;;;1.35;;
79268;SDS011;68714;48.586;7.772;2023-03-20T01:30:48;1.33;;;1.08;;
79268;SDS011;68714;48.586;7.772;2023-03-20T01:33:18;1.58;;;1.20;;
79268;SDS011;68714;48.586;7.772;2023-03-20T01:35:46;3.40;;;1.45;;
79268;SDS011;68714;48.586;7.772;2023-03-20T01:38:14;2.22;;;1.20;;
79268;SDS011;68714;48.586;7.772;2023-03-20T01:43:26;2.03;;;1.38;;
79268;SDS011;68714;48.586;7.772;2023-03-20T01:48:18;2.13;;;1.27;;
79268;SDS011;68714;48.586;7.772;2023-03-20T01:50:43;2.38;;;1.40;;
79268;SDS011;68714;48.586;7.772;2023-03-20T01:53:11;2.25;;;1.08;;
79268;SDS011;68714;48.586;7.772;2023-03-20T01:55:46;1.90;;;1.20;;
79268;SDS011;68714;48.586;7.772;2023-03-20T01:58:17;3.05;;;1.40;;
79268;SDS011;68714;48.586;7.772;2023-03-20T02:00:46;2.33;;;1.30;;
79268;SDS011;68714;48.586;7.772;2023-03-20T02:03:15;2.30;;;1.30;;
79268;SDS011;68714;48.586;7.772;2023-03-20T02:05:42;1.48;;;1.13;;
79268;SDS011;68714;48.586;7.772;2023-03-20T02:10:34;1.80;;;1.38;;
79268;SDS011;68714;48.586;7.772;2023-03-20T02:13:00;1.92;;;1.48;;
79268;SDS011;68714;48.586;7.772;2023-03-20T02:15:28;2.47;;;1.52;;
79268;SDS011;68714;48.586;7.772;2023-03-20T02:17:54;2.50;;;1.38;;
79268;SDS011;68714;48.586;7.772;2023-03-20T02:20:26;2.08;;;1.50;;
79268;SDS011;68714;48.586;7.772;2023-03-20T02:42:05;1.48;;;1.20;;
79268;SDS011;68714;48.586;7.772;2023-03-20T02:44:45;2.00;;;1.48;;
79268;SDS011;68714;48.586;7.772;2023-03-20T02:58:46;2.60;;;1.90;;
79268;SDS011;68714;48.586;7.772;2023-03-20T03:01:18;2.05;;;1.30;;
79268;SDS011;68714;48.586;7.772;2023-03-20T03:03:53;2.15;;;1.52;;
79268;SDS011;68714;48.586;7.772;2023-03-20T03:06:23;2.33;;;1.80;;
79268;SDS011;68714;48.586;7.772;2023-03-20T03:09:05;3.13;;;1.95;;
79268;SDS011;68714;48.586;7.772;2023-03-20T03:11:47;3.47;;;1.92;;
79268;SDS011;68714;48.586;7.772;2023-03-20T03:17:09;2.38;;;1.48;;
79268;SDS011;68714;48.586;7.772;2023-03-20T03:19:37;4.35;;;1.90;;
79268;SDS011;68714;48.586;7.772;2023-03-20T03:22:05;2.92;;;2.15;;
79268;SDS011;68714;48.586;7.772;2023-03-20T03:27:00;2.95;;;2.00;;
79268;SDS011;68714;48.586;7.772;2023-03-20T03:32:01;1.55;;;1.38;;
79268;SDS011;68714;48.586;7.772;2023-03-20T03:34:30;2.38;;;1.58;;
79268;SDS011;68714;48.586;7.772;2023-03-20T03:37:05;2.50;;;1.85;;
79268;SDS011;68714;48.586;7.772;2023-03-20T03:39:40;3.15;;;1.50;;
79268;SDS011;68714;48.586;7.772;2023-03-20T03:47:28;2.85;;;1.80;;
79268;SDS011;68714;48.586;7.772;2023-03-20T03:50:11;2.22;;;1.70;;
79268;SDS011;68714;48.586;7.772;2023-03-20T03:52:41;2.33;;;1.70;;
79268;SDS011;68714;48.586;7.772;2023-03-20T03:55:13;3.30;;;1.77;;
79268;SDS011;68714;48.586;7.772;2023-03-20T03:58:03;3.40;;;1.90;;
79268;SDS011;68714;48.586;7.772;2023-03-20T04:00:35;3.40;;;1.70;;
79268;SDS011;68714;48.586;7.772;2023-03-20T04:03:04;2.50;;;1.80;;
79268;SDS011;68714;48.586;7.772;2023-03-20T04:05:31;4.97;;;2.20;;
79268;SDS011;68714;48.586;7.772;2023-03-20T04:08:01;3.38;;;1.85;;
79268;SDS011;68714;48.586;7.772;2023-03-20T04:10:29;3.75;;;1.90;;
79268;SDS011;68714;48.586;7.772;2023-03-20T04:12:55;2.70;;;1.90;;
79268;SDS011;68714;48.586;7.772;2023-03-20T04:15:20;3.47;;;2.15;;
79268;SDS011;68714;48.586;7.772;2023-03-20T04:17:46;2.42;;;2.00;;
79268;SDS011;68714;48.586;7.772;2023-03-20T04:20:11;2.60;;;1.75;;
79268;SDS011;68714;48.586;7.772;2023-03-20T04:22:38;3.05;;;2.13;;
79268;SDS011;68714;48.586;7.772;2023-03-20T04:25:04;4.90;;;2.15;;
79268;SDS011;68714;48.586;7.772;2023-03-20T04:27:31;3.75;;;2.20;;
79268;SDS011;68714;48.586;7.772;2023-03-20T04:29:57;4.63;;;2.70;;
79268;SDS011;68714;48.586;7.772;2023-03-20T04:32:22;2.85;;;2.22;;
79268;SDS011;68714;48.586;7.772;2023-03-20T04:34:48;3.28;;;2.33;;
79268;SDS011;68714;48.586;7.772;2023-03-20T04:37:13;2.80;;;2.38;;
79268;SDS011;68714;48.586;7.772;2023-03-20T04:39:39;3.58;;;2.35;;
79268;SDS011;68714;48.586;7.772;2023-03-20T04:42:06;3.03;;;2.53;;
79268;SDS011;68714;48.586;7.772;2023-03-20T04:44:32;3.60;;;2.40;;
79268;SDS011;68714;48.586;7.772;2023-03-20T04:46:58;2.40;;;1.90;;
79268;SDS011;68714;48.586;7.772;2023-03-20T04:49:23;4.72;;;2.50;;
79268;SDS011;68714;48.586;7.772;2023-03-20T04:51:49;3.78;;;2.78;;
79268;SDS011;68714;48.586;7.772;2023-03-20T04:54:14;3.40;;;2.65;;
79268;SDS011;68714;48.586;7.772;2023-03-20T04:56:40;3.30;;;2.58;;
79268;SDS011;68714;48.586;7.772;2023-03-20T04:59:05;4.97;;;2.72;;
79268;SDS011;68714;48.586;7.772;2023-03-20T05:01:31;2.97;;;2.25;;
79268;SDS011;68714;48.586;7.772;2023-03-20T05:03:56;4.07;;;2.75;;
79268;SDS011;68714;48.586;7.772;2023-03-20T05:06:28;3.13;;;2.70;;
79268;SDS011;68714;48.586;7.772;2023-03-20T05:08:55;3.35;;;2.53;;
79268;SDS011;68714;48.586;7.772;2023-03-20T05:11:23;3.92;;;2.47;;
79268;SDS011;68714;48.586;7.772;2023-03-20T05:13:48;4.15;;;3.03;;
79268;SDS011;68714;48.586;7.772;2023-03-20T05:16:14;3.85;;;2.80;;
79268;SDS011;68714;48.586;7.772;2023-03-20T05:18:40;4.75;;;3.40;;
79268;SDS011;68714;48.586;7.772;2023-03-20T05:21:05;3.58;;;2.70;;
79268;SDS011;68714;48.586;7.772;2023-03-20T05:23:31;3.05;;;2.67;;
79268;SDS011;68714;48.586;7.772;2023-03-20T05:25:57;5.20;;;3.90;;
79268;SDS011;68714;48.586;7.772;2023-03-20T05:28:22;4.03;;;2.88;;
79268;SDS011;68714;48.586;7.772;2023-03-20T05:30:48;4.00;;;3.20;;
79268;SDS011;68714;48.586;7.772;2023-03-20T05:33:13;4.22;;;3.33;;
79268;SDS011;68714;48.586;7.772;2023-03-20T05:35:38;3.28;;;2.58;;
79268;SDS011;68714;48.586;7.772;2023-03-20T05:38:04;3.83;;;2.88;;
79268;SDS011;68714;48.586;7.772;2023-03-20T05:40:30;5.05;;;2.95;;
79268;SDS011;68714;48.586;7.772;2023-03-20T05:42:55;4.57;;;2.78;;
79268;SDS011;68714;48.586;7.772;2023-03-20T05:45:21;4.72;;;3.13;;
79268;SDS011;68714;48.586;7.772;2023-03-20T05:47:47;5.15;;;3.15;;
79268;SDS011;68714;48.586;7.772;2023-03-20T05:50:12;4.72;;;3.40;;
79268;SDS011;68714;48.586;7.772;2023-03-20T05:52:39;4.25;;;2.75;;
79268;SDS011;68714;48.586;7.772;2023-03-20T05:55:05;3.45;;;2.50;;
79268;SDS011;68714;48.586;7.772;2023-03-20T05:57:31;5.25;;;3.28;;
79268;SDS011;68714;48.586;7.772;2023-03-20T05:59:56;5.93;;;3.72;;
79268;SDS011;68714;48.586;7.772;2023-03-20T06:02:22;4.47;;;2.63;;
79268;SDS011;68714;48.586;7.772;2023-03-20T06:04:47;5.38;;;2.22;;
79268;SDS011;68714;48.586;7.772;2023-03-20T06:07:13;7.53;;;2.90;;
79268;SDS011;68714;48.586;7.772;2023-03-20T06:09:38;3.55;;;2.78;;
79268;SDS011;68714;48.586;7.772;2023-03-20T06:12:04;3.97;;;2.85;;
79268;SDS011;68714;48.586;7.772;2023-03-20T06:14:30;4.28;;;2.75;;
79268;SDS011;68714;48.586;7.772;2023-03-20T06:16:55;4.55;;;1.80;;
79268;SDS011;68714;48.586;7.772;2023-03-20T06:19:21;4.82;;;2.70;;
79268;SDS011;68714;48.586;7.772;2023-03-20T06:21:47;3.97;;;2.47;;
79268;SDS011;68714;48.586;7.772;2023-03-20T06:24:13;2.75;;;2.35;;
79268;SDS011;68714;48.586;7.772;2023-03-20T06:26:39;3.45;;;2.63;;
79268;SDS011;68714;48.586;7.772;2023-03-20T06:29:04;3.55;;;2.35;;
79268;SDS011;68714;48.586;7.772;2023-03-20T06:31:30;3.40;;;2.17;;
79268;SDS011;68714;48.586;7.772;2023-03-20T06:33:55;2.78;;;2.20;;
79268;SDS011;68714;48.586;7.772;2023-03-20T06:36:21;3.40;;;2.30;;
79268;SDS011;68714;48.586;7.772;2023-03-20T06:38:47;3.47;;;2.45;;
79268;SDS011;68714;48.586;7.772;2023-03-20T06:41:12;4.70;;;3.28;;
79268;SDS011;68714;48.586;7.772;2023-03-20T06:43:38;8.32;;;5.13;;
79268;SDS011;68714;48.586;7.772;2023-03-20T06:46:03;5.85;;;2.92;;
79268;SDS011;68714;48.586;7.772;2023-03-20T06:48:30;3.22;;;2.15;;
79268;SDS011;68714;48.586;7.772;2023-03-20T06:50:56;4.38;;;2.72;;
79268;SDS011;68714;48.586;7.772;2023-03-20T06:53:22;4.53;;;2.60;;
79268;SDS011;68714;48.586;7.772;2023-03-20T06:55:48;3.55;;;2.47;;
79268;SDS011;68714;48.586;7.772;2023-03-20T06:58:14;4.78;;;2.70;;
79268;SDS011;68714;48.586;7.772;2023-03-20T07:00:40;3.28;;;2.60;;
79268;SDS011;68714;48.586;7.772;2023-03-20T07:03:06;2.65;;;1.98;;
79268;SDS011;68714;48.586;7.772;2023-03-20T07:05:32;3.47;;;2.15;;
79268;SDS011;68714;48.586;7.772;2023-03-20T07:07:58;2.67;;;2.05;;
79268;SDS011;68714;48.586;7.772;2023-03-20T07:10:24;3.00;;;2.13;;
79268;SDS011;68714;48.586;7.772;2023-03-20T07:12:49;3.60;;;2.40;;
79268;SDS011;68714;48.586;7.772;2023-03-20T07:15:15;3.20;;;2.05;;
79268;SDS011;68714;48.586;7.772;2023-03-20T07:17:44;2.95;;;2.65;;
79268;SDS011;68714;48.586;7.772;2023-03-20T07:20:10;3.50;;;2.70;;
79268;SDS011;68714;48.586;7.772;2023-03-20T07:22:35;3.60;;;2.67;;
79268;SDS011;68714;48.586;7.772;2023-03-20T07:25:01;4.00;;;2.65;;
79268;SDS011;68714;48.586;7.772;2023-03-20T07:27:27;3.65;;;2.60;;
79268;SDS011;68714;48.586;7.772;2023-03-20T07:29:52;2.90;;;2.05;;
79268;SDS011;68714;48.586;7.772;2023-03-20T07:32:18;4.78;;;2.70;;
79268;SDS011;68714;48.586;7.772;2023-03-20T07:34:44;3.22;;;2.58;;
79268;SDS011;68714;48.586;7.772;2023-03-20T07:37:11;4.88;;;2.72;;
79268;SDS011;68714;48.586;7.772;2023-03-20T07:39:37;3.10;;;2.40;;
79268;SDS011;68714;48.586;7.772;2023-03-20T07:42:02;3.50;;;2.42;;
79268;SDS011;68714;48.586;7.772;2023-03-20T07:44:28;2.92;;;1.80;;
79268;SDS011;68714;48.586;7.772;2023-03-20T07:46:53;2.60;;;2.10;;
79268;SDS011;68714;48.586;7.772;2023-03-20T07:49:18;3.30;;;2.58;;
79268;SDS011;68714;48.586;7.772;2023-03-20T07:51:44;3.47;;;2.65;;
79268;SDS011;68714;48.586;7.772;2023-03-20T07:54:11;2.85;;;2.25;;
79268;SDS011;68714;48.586;7.772;2023-03-20T07:56:36;3.65;;;2.65;;
79268;SDS011;68714;48.586;7.772;2023-03-20T07:59:02;3.13;;;2.47;;
79268;SDS011;68714;48.586;7.772;2023-03-20T08:01:28;3.10;;;2.20;;
79268;SDS011;68714;48.586;7.772;2023-03-20T08:03:53;5.00;;;2.50;;
79268;SDS011;68714;48.586;7.772;2023-03-20T08:06:19;3.20;;;2.28;;
79268;SDS011;68714;48.586;7.772;2023-03-20T08:08:44;5.32;;;2.67;;
79268;SDS011;68714;48.586;7.772;2023-03-20T08:11:10;4.75;;;2.90;;
79268;SDS011;68714;48.586;7.772;2023-03-20T08:13:36;3.85;;;2.72;;
79268;SDS011;68714;48.586;7.772;2023-03-20T08:16:02;6.13;;;2.80;;
79268;SDS011;68714;48.586;7.772;2023-03-20T08:18:28;5.32;;;3.28;;
79268;SDS011;68714;48.586;7.772;2023-03-20T08:20:54;4.57;;;2.75;;
79268;SDS011;68714;48.586;7.772;2023-03-20T08:23:19;2.88;;;2.58;;
79268;SDS011;68714;48.586;7.772;2023-03-20T08:25:46;3.92;;;2.50;;
79268;SDS011;68714;48.586;7.772;2023-03-20T08:28:15;3.30;;;2.35;;
79268;SDS011;68714;48.586;7.772;2023-03-20T08:30:41;2.72;;;2.15;;
79268;SDS011;68714;48.586;7.772;2023-03-20T08:33:07;3.50;;;2.58;;
79268;SDS011;68714;48.586;7.772;2023-03-20T08:35:32;3.10;;;2.25;;
79268;SDS011;68714;48.586;7.772;2023-03-20T08:37:58;4.78;;;2.85;;
79268;SDS011;68714;48.586;7.772;2023-03-20T08:40:24;3.58;;;2.50;;
79268;SDS011;68714;48.586;7.772;2023-03-20T08:42:49;3.38;;;2.40;;
79268;SDS011;68714;48.586;7.772;2023-03-20T08:45:15;2.47;;;2.00;;
79268;SDS011;68714;48.586;7.772;2023-03-20T08:47:41;3.17;;;2.30;;
79268;SDS011;68714;48.586;7.772;2023-03-20T08:50:06;2.80;;;2.03;;
79268;SDS011;68714;48.586;7.772;2023-03-20T08:52:33;4.22;;;2.67;;
79268;SDS011;68714;48.586;7.772;2023-03-20T08:54:58;4.55;;;2.78;;
79268;SDS011;68714;48.586;7.772;2023-03-20T08:57:24;4.63;;;2.95;;
79268;SDS011;68714;48.586;7.772;2023-03-20T08:59:50;3.85;;;3.30;;
79268;SDS011;68714;48.586;7.772;2023-03-20T09:02:15;3.60;;;2.60;;
79268;SDS011;68714;48.586;7.772;2023-03-20T09:04:41;3.35;;;2.83;;
79268;SDS011;68714;48.586;7.772;2023-03-20T09:07:06;2.85;;;2.20;;
79268;SDS011;68714;48.586;7.772;2023-03-20T09:09:31;6.43;;;3.03;;
79268;SDS011;68714;48.586;7.772;2023-03-20T09:11:57;3.33;;;2.50;;
79268;SDS011;68714;48.586;7.772;2023-03-20T09:14:25;4.07;;;2.58;;
79268;SDS011;68714;48.586;7.772;2023-03-20T09:16:52;4.68;;;2.40;;
79268;SDS011;68714;48.586;7.772;2023-03-20T09:19:18;3.90;;;2.63;;
79268;SDS011;68714;48.586;7.772;2023-03-20T09:21:44;3.03;;;2.38;;
79268;SDS011;68714;48.586;7.772;2023-03-20T09:24:10;3.85;;;2.58;;
79268;SDS011;68714;48.586;7.772;2023-03-20T09:26:36;3.33;;;2.25;;
79268;SDS011;68714;48.586;7.772;2023-03-20T09:29:02;5.40;;;2.65;;
79268;SDS011;68714;48.586;7.772;2023-03-20T09:31:28;3.92;;;2.30;;
79268;SDS011;68714;48.586;7.772;2023-03-20T09:33:53;3.50;;;2.20;;
79268;SDS011;68714;48.586;7.772;2023-03-20T09:36:19;3.63;;;2.53;;
79268;SDS011;68714;48.586;7.772;2023-03-20T09:38:44;4.10;;;2.55;;
79268;SDS011;68714;48.586;7.772;2023-03-20T09:41:16;2.92;;;2.30;;
79268;SDS011;68714;48.586;7.772;2023-03-20T09:46:50;3.03;;;1.92;;
79268;SDS011;68714;48.586;7.772;2023-03-20T09:51:55;5.13;;;3.15;;
79268;SDS011;68714;48.586;7.772;2023-03-20T09:56:51;3.88;;;2.35;;
79268;SDS011;68714;48.586;7.772;2023-03-20T09:59:18;2.90;;;2.30;;
79268;SDS011;68714;48.586;7.772;2023-03-20T10:04:14;2.47;;;1.90;;
79268;SDS011;68714;48.586;7.772;2023-03-20T10:06:39;3.00;;;2.40;;
79268;SDS011;68714;48.586;7.772;2023-03-20T10:09:38;4.47;;;2.78;;
79268;SDS011;68714;48.586;7.772;2023-03-20T10:12:02;2.55;;;1.95;;
79268;SDS011;68714;48.586;7.772;2023-03-20T10:14:49;3.22;;;2.10;;
79268;SDS011;68714;48.586;7.772;2023-03-20T10:20:29;2.80;;;1.85;;
79268;SDS011;68714;48.586;7.772;2023-03-20T10:23:15;3.00;;;2.08;;
79268;SDS011;68714;48.586;7.772;2023-03-20T10:25:49;5.07;;;2.13;;
79268;SDS011;68714;48.586;7.772;2023-03-20T10:37:18;3.25;;;2.17;;
79268;SDS011;68714;48.586;7.772;2023-03-20T10:42:48;1.88;;;1.40;;
79268;SDS011;68714;48.586;7.772;2023-03-20T10:47:41;2.15;;;1.30;;
79268;SDS011;68714;48.586;7.772;2023-03-20T10:50:16;1.65;;;1.17;;
79268;SDS011;68714;48.586;7.772;2023-03-20T10:52:43;1.42;;;1.13;;
79268;SDS011;68714;48.586;7.772;2023-03-20T10:55:15;1.70;;;1.17;;
79268;SDS011;68714;48.586;7.772;2023-03-20T10:57:52;2.63;;;1.23;;
79268;SDS011;68714;48.586;7.772;2023-03-20T11:00:22;2.85;;;2.45;;
79268;SDS011;68714;48.586;7.772;2023-03-20T11:02:49;3.10;;;2.42;;
79268;SDS011;68714;48.586;7.772;2023-03-20T11:05:21;3.72;;;2.90;;
79268;SDS011;68714;48.586;7.772;2023-03-20T11:07:50;4.15;;;3.03;;
79268;SDS011;68714;48.586;7.772;2023-03-20T11:10:25;3.70;;;2.85;;
79268;SDS011;68714;48.586;7.772;2023-03-20T11:12:51;4.75;;;3.45;;
79268;SDS011;68714;48.586;7.772;2023-03-20T11:15:21;3.30;;;2.30;;
79268;SDS011;68714;48.586;7.772;2023-03-20T11:17:59;3.00;;;2.50;;
79268;SDS011;68714;48.586;7.772;2023-03-20T11:20:32;3.42;;;2.10;;
79268;SDS011;68714;48.586;7.772;2023-03-20T11:23:03;3.00;;;1.77;;
79268;SDS011;68714;48.586;7.772;2023-03-20T11:25:37;3.55;;;2.30;;
79268;SDS011;68714;48.586;7.772;2023-03-20T11:28:20;2.95;;;1.90;;
79268;SDS011;68714;48.586;7.772;2023-03-20T11:31:36;1.85;;;1.58;;
79268;SDS011;68714;48.586;7.772;2023-03-20T11:33:43;3.23;;;2.17;;
79268;SDS011;68714;48.586;7.772;2023-03-20T11:36:30;3.53;;;2.45;;
79268;SDS011;68714;48.586;7.772;2023-03-20T11:39:15;3.75;;;2.90;;
79268;SDS011;68714;48.586;7.772;2023-03-20T11:41:49;3.90;;;2.28;;
79268;SDS011;68714;48.586;7.772;2023-03-20T11:44:22;3.22;;;2.45;;
79268;SDS011;68714;48.586;7.772;2023-03-20T11:49:28;4.07;;;2.65;;
79268;SDS011;68714;48.586;7.772;2023-03-20T11:51:56;3.53;;;2.80;;
79268;SDS011;68714;48.586;7.772;2023-03-20T11:54:26;3.55;;;2.13;;
79268;SDS011;68714;48.586;7.772;2023-03-20T11:59:19;2.25;;;1.73;;
79268;SDS011;68714;48.586;7.772;2023-03-20T12:01:47;2.47;;;1.80;;
79268;SDS011;68714;48.586;7.772;2023-03-20T12:07:02;2.15;;;1.48;;
79268;SDS011;68714;48.586;7.772;2023-03-20T12:12:23;2.03;;;1.48;;
79268;SDS011;68714;48.586;7.772;2023-03-20T12:23:02;1.85;;;1.10;;
79268;SDS011;68714;48.586;7.772;2023-03-20T12:31:01;1.83;;;0.90;;
79268;SDS011;68714;48.586;7.772;2023-03-20T12:36:28;1.35;;;0.77;;
79268;SDS011;68714;48.586;7.772;2023-03-20T12:38:56;0.98;;;0.77;;
79268;SDS011;68714;48.586;7.772;2023-03-20T12:41:29;1.25;;;0.70;;
79268;SDS011;68714;48.586;7.772;2023-03-20T13:00:33;1.15;;;0.80;;
79268;SDS011;68714;48.586;7.772;2023-03-20T13:05:58;1.00;;;0.70;;
79268;SDS011;68714;48.586;7.772;2023-03-20T13:08:35;1.42;;;0.95;;
79268;SDS011;68714;48.586;7.772;2023-03-20T13:17:00;0.93;;;0.77;;
79268;SDS011;68714;48.586;7.772;2023-03-20T13:22:14;2.03;;;1.00;;
79268;SDS011;68714;48.586;7.772;2023-03-20T13:29:55;2.65;;;0.70;;
79268;SDS011;68714;48.586;7.772;2023-03-20T13:32:54;2.17;;;0.88;;
79268;SDS011;68714;48.586;7.772;2023-03-20T13:35:51;1.00;;;0.70;;
79268;SDS011;68714;48.586;7.772;2023-03-20T13:39:09;0.85;;;0.60;;
79268;SDS011;68714;48.586;7.772;2023-03-20T13:41:17;1.50;;;0.75;;
79268;SDS011;68714;48.586;7.772;2023-03-20T13:43:46;2.28;;;0.80;;
79268;SDS011;68714;48.586;7.772;2023-03-20T13:48:52;1.10;;;0.90;;
79268;SDS011;68714;48.586;7.772;2023-03-20T13:51:25;1.10;;;0.80;;
79268;SDS011;68714;48.586;7.772;2023-03-20T13:57:20;1.90;;;1.20;;
79268;SDS011;68714;48.586;7.772;2023-03-20T13:59:57;2.70;;;0.88;;
79268;SDS011;68714;48.586;7.772;2023-03-20T14:07:37;1.10;;;0.73;;
79268;SDS011;68714;48.586;7.772;2023-03-20T14:12:58;1.50;;;0.90;;
79268;SDS011;68714;48.586;7.772;2023-03-20T14:15:27;1.27;;;0.88;;
79268;SDS011;68714;48.586;7.772;2023-03-20T14:17:56;1.52;;;0.75;;
79268;SDS011;68714;48.586;7.772;2023-03-20T14:20:27;0.90;;;0.75;;
79268;SDS011;68714;48.586;7.772;2023-03-20T14:22:56;0.98;;;0.75;;
79268;SDS011;68714;48.586;7.772;2023-03-20T14:25:22;1.27;;;0.80;;
79268;SDS011;68714;48.586;7.772;2023-03-20T14:27:58;1.00;;;0.70;;
79268;SDS011;68714;48.586;7.772;2023-03-20T14:35:43;1.10;;;0.70;;
79268;SDS011;68714;48.586;7.772;2023-03-20T14:43:53;1.48;;;0.60;;
79268;SDS011;68714;48.586;7.772;2023-03-20T14:46:47;1.27;;;0.70;;
79268;SDS011;68714;48.586;7.772;2023-03-20T14:49:23;1.20;;;0.70;;
79268;SDS011;68714;48.586;7.772;2023-03-20T14:52:32;1.40;;;0.82;;
79268;SDS011;68714;48.586;7.772;2023-03-20T14:57:44;1.23;;;0.70;;
79268;SDS011;68714;48.586;7.772;2023-03-20T15:00:17;3.20;;;0.70;;
79268;SDS011;68714;48.586;7.772;2023-03-20T15:02:49;1.23;;;0.57;;
79268;SDS011;68714;48.586;7.772;2023-03-20T15:05:23;1.20;;;0.95;;
79268;SDS011;68714;48.586;7.772;2023-03-20T15:07:53;1.40;;;0.98;;
79268;SDS011;68714;48.586;7.772;2023-03-20T15:10:28;1.65;;;1.00;;
79268;SDS011;68714;48.586;7.772;2023-03-20T15:12:54;1.35;;;1.08;;
79268;SDS011;68714;48.586;7.772;2023-03-20T15:15:26;1.30;;;0.80;;
79268;SDS011;68714;48.586;7.772;2023-03-20T15:17:55;2.08;;;0.88;;
79268;SDS011;68714;48.586;7.772;2023-03-20T15:20:28;0.95;;;0.80;;
79268;SDS011;68714;48.586;7.772;2023-03-20T15:22:55;3.22;;;0.80;;
79268;SDS011;68714;48.586;7.772;2023-03-20T15:25:23;0.95;;;0.65;;
79268;SDS011;68714;48.586;7.772;2023-03-20T15:27:55;0.85;;;0.60;;
79268;SDS011;68714;48.586;7.772;2023-03-20T15:30:21;1.65;;;0.75;;
79268;SDS011;68714;48.586;7.772;2023-03-20T15:32:47;1.85;;;0.80;;
79268;SDS011;68714;48.586;7.772;2023-03-20T15:35:21;1.48;;;0.90;;
79268;SDS011;68714;48.586;7.772;2023-03-20T15:37:48;1.60;;;1.02;;
79268;SDS011;68714;48.586;7.772;2023-03-20T15:40:25;2.78;;;0.75;;
79268;SDS011;68714;48.586;7.772;2023-03-20T15:45:26;1.27;;;0.70;;
79268;SDS011;68714;48.586;7.772;2023-03-20T15:48:05;1.35;;;0.90;;
79268;SDS011;68714;48.586;7.772;2023-03-20T15:50:32;0.70;;;0.70;;
79268;SDS011;68714;48.586;7.772;2023-03-20T15:52:58;2.58;;;0.90;;
79268;SDS011;68714;48.586;7.772;2023-03-20T15:55:24;1.30;;;0.63;;
79268;SDS011;68714;48.586;7.772;2023-03-20T15:57:52;1.30;;;0.73;;
79268;SDS011;68714;48.586;7.772;2023-03-20T16:02:58;0.93;;;0.65;;
79268;SDS011;68714;48.586;7.772;2023-03-20T16:05:27;1.50;;;0.82;;
79268;SDS011;68714;48.586;7.772;2023-03-20T16:07:53;1.73;;;0.65;;
79268;SDS011;68714;48.586;7.772;2023-03-20T16:10:30;1.60;;;0.70;;
79268;SDS011;68714;48.586;7.772;2023-03-20T16:13:00;1.17;;;0.75;;
79268;SDS011;68714;48.586;7.772;2023-03-20T16:15:27;1.15;;;0.60;;
79268;SDS011;68714;48.586;7.772;2023-03-20T16:17:59;1.02;;;0.60;;
79268;SDS011;68714;48.586;7.772;2023-03-20T16:20:32;0.60;;;0.60;;
79268;SDS011;68714;48.586;7.772;2023-03-20T16:23:03;1.17;;;0.70;;
79268;SDS011;68714;48.586;7.772;2023-03-20T16:25:31;1.60;;;0.80;;
79268;SDS011;68714;48.586;7.772;2023-03-20T16:27:58;2.78;;;0.90;;
79268;SDS011;68714;48.586;7.772;2023-03-20T16:30:25;1.17;;;0.60;;
79268;SDS011;68714;48.586;7.772;2023-03-20T16:32:59;1.55;;;0.77;;
79268;SDS011;68714;48.586;7.772;2023-03-20T16:35:29;1.30;;;0.70;;
79268;SDS011;68714;48.586;7.772;2023-03-20T16:38:13;0.93;;;0.70;;
79268;SDS011;68714;48.586;7.772;2023-03-20T16:40:47;1.80;;;0.80;;
79268;SDS011;68714;48.586;7.772;2023-03-20T16:45:47;1.88;;;1.00;;
79268;SDS011;68714;48.586;7.772;2023-03-20T16:48:26;1.08;;;0.70;;
79268;SDS011;68714;48.586;7.772;2023-03-20T16:50:57;0.88;;;0.77;;
79268;SDS011;68714;48.586;7.772;2023-03-20T16:53:29;2.13;;;0.70;;
79268;SDS011;68714;48.586;7.772;2023-03-20T16:56:04;1.33;;;0.80;;
79268;SDS011;68714;48.586;7.772;2023-03-20T16:58:35;1.83;;;1.10;;
79268;SDS011;68714;48.586;7.772;2023-03-20T17:01:05;1.88;;;1.05;;
79268;SDS011;68714;48.586;7.772;2023-03-20T17:03:46;1.08;;;0.70;;
79268;SDS011;68714;48.586;7.772;2023-03-20T17:08:47;1.25;;;0.60;;
79268;SDS011;68714;48.586;7.772;2023-03-20T17:11:16;2.70;;;0.68;;
79268;SDS011;68714;48.586;7.772;2023-03-20T17:14:06;1.45;;;0.95;;
79268;SDS011;68714;48.586;7.772;2023-03-20T17:16:31;1.55;;;0.60;;
79268;SDS011;68714;48.586;7.772;2023-03-20T17:18:58;1.33;;;0.80;;
79268;SDS011;68714;48.586;7.772;2023-03-20T17:21:26;1.25;;;0.70;;
79268;SDS011;68714;48.586;7.772;2023-03-20T17:23:52;3.95;;;0.70;;
79268;SDS011;68714;48.586;7.772;2023-03-20T17:26:17;1.00;;;0.70;;
79268;SDS011;68714;48.586;7.772;2023-03-20T17:28:43;0.93;;;0.70;;
79268;SDS011;68714;48.586;7.772;2023-03-20T17:31:11;2.15;;;1.10;;
79268;SDS011;68714;48.586;7.772;2023-03-20T17:33:38;2.20;;;0.85;;
79268;SDS011;68714;48.586;7.772;2023-03-20T17:36:04;2.28;;;0.80;;
79268;SDS011;68714;48.586;7.772;2023-03-20T17:38:39;1.15;;;0.70;;
79268;SDS011;68714;48.586;7.772;2023-03-20T17:41:04;1.20;;;0.90;;
79268;SDS011;68714;48.586;7.772;2023-03-20T17:43:30;2.60;;;0.80;;
79268;SDS011;68714;48.586;7.772;2023-03-20T17:45:56;1.17;;;0.93;;
79268;SDS011;68714;48.586;7.772;2023-03-20T17:48:22;3.45;;;1.00;;
79268;SDS011;68714;48.586;7.772;2023-03-20T17:50:49;1.35;;;0.80;;
79268;SDS011;68714;48.586;7.772;2023-03-20T17:53:16;1.73;;;1.08;;
79268;SDS011;68714;48.586;7.772;2023-03-20T17:58:14;1.20;;;0.75;;
79268;SDS011;68714;48.586;7.772;2023-03-20T18:00:45;2.30;;;1.17;;
79268;SDS011;68714;48.586;7.772;2023-03-20T18:03:10;1.27;;;0.85;;
79268;SDS011;68714;48.586;7.772;2023-03-20T18:05:36;1.45;;;0.75;;
79268;SDS011;68714;48.586;7.772;2023-03-20T18:08:04;1.67;;;0.80;;